sensor_id;sensor_type;location;lat;lon;timestamp;pressure;altitude;pressure_sealevel;temperature;humidity
36598;BME280;22607;49.550;11.940;2023-08-30T00:02:24;96158.22;;;14.06;100.00
36598;BME280;22607;49.550;11.940;2023-08-30T00:04:51;96157.06;;;13.88;100.00
36598;BME280;22607;49.550;11.940;2023-08-30T00:07:17;96161.84;;;14.04;100.00
36598;BME280;22607;49.550;11.940;2023-08-30T00:09:44;96167.09;;;14.11;100.00
36598;BME280;22607;49.550;11.940;2023-08-30T00:12:11;96145.44;;;14.02;100.00
36598;BME280;22607;49.550;11.940;2023-08-30T00:14:37;96154.06;;;14.16;100.00
36598;BME280;22607;49.550;11.940;2023-08-30T00:17:04;96169.53;;;14.13;100.00
36598;BME280;22607;49.550;11.940;2023-08-30T00:19:30;96163.19;;;14.21;100.00
36598;BME280;22607;49.550;11.940;2023-08-30T00:21:57;96167.81;;;14.32;100.00
36598;BME280;22607;49.550;11.940;2023-08-30T00:24:24;96163.41;;;14.19;100.00
36598;BME280;22607;49.550;11.940;2023-08-30T00:26:51;96169.16;;;14.09;100.00
36598;BME280;22607;49.550;11.940;2023-08-30T00:29:17;96169.53;;;14.13;100.00
36598;BME280;22607;49.550;11.940;2023-08-30T00:31:44;96168.69;;;14.19;100.00
36598;BME280;22607;49.550;11.940;2023-08-30T00:34:10;96174.75;;;14.26;100.00
36598;BME280;22607;49.550;11.940;2023-08-30T00:36:37;96176.84;;;14.17;100.00
36598;BME280;22607;49.550;11.940;2023-08-30T00:39:15;96181.69;;;14.21;100.00
36598;BME280;22607;49.550;11.940;2023-08-30T00:41:41;96173.38;;;14.17;100.00
36598;BME280;22607;49.550;11.940;2023-08-30T00:44:09;96172.38;;;14.11;100.00
36598;BME280;22607;49.550;11.940;2023-08-30T00:46:36;96169.75;;;14.11;100.00
36598;BME280;22607;49.550;11.940;2023-08-30T00:49:11;96173.00;;;14.13;100.00
36598;BME280;22607;49.550;11.940;2023-08-30T00:51:38;96172.03;;;14.01;100.00
36598;BME280;22607;49.550;11.940;2023-08-30T00:54:05;96178.69;;;14.10;100.00
36598;BME280;22607;49.550;11.940;2023-08-30T00:56:32;96181.56;;;14.02;100.00
36598;BME280;22607;49.550;11.940;2023-08-30T00:59:00;96173.34;;;13.78;100.00
36598;BME280;22607;49.550;11.940;2023-08-30T01:01:27;96173.72;;;13.82;100.00
36598;BME280;22607;49.550;11.940;2023-08-30T01:03:55;96174.13;;;13.85;100.00
36598;BME280;22607;49.550;11.940;2023-08-30T01:06:21;96175.97;;;13.78;100.00
36598;BME280;22607;49.550;11.940;2023-08-30T01:08:49;96175.13;;;13.84;100.00
36598;BME280;22607;49.550;11.940;2023-08-30T01:11:29;96179.38;;;13.92;100.00
36598;BME280;22607;49.550;11.940;2023-08-30T01:14:12;96175.56;;;13.81;100.00
36598;BME280;22607;49.550;11.940;2023-08-30T01:16:40;96170.69;;;13.78;100.00
36598;BME280;22607;49.550;11.940;2023-08-30T01:23:07;96178.41;;;13.80;100.00
36598;BME280;22607;49.550;11.940;2023-08-30T01:27:50;96183.09;;;13.77;100.00
36598;BME280;22607;49.550;11.940;2023-08-30T01:30:20;96194.03;;;13.81;100.00
36598;BME280;22607;49.550;11.940;2023-08-30T01:32:56;96190.53;;;13.94;100.00
36598;BME280;22607;49.550;11.940;2023-08-30T01:35:24;96192.34;;;13.94;100.00
36598;BME280;22607;49.550;11.940;2023-08-30T01:37:52;96176.16;;;13.83;100.00
36598;BME280;22607;49.550;11.940;2023-08-30T01:40:19;96177.59;;;13.79;100.00
36598;BME280;22607;49.550;11.940;2023-08-30T01:42:47;96178.22;;;13.74;100.00
36598;BME280;22607;49.550;11.940;2023-08-30T01:45:15;96185.34;;;13.67;100.00
36598;BME280;22607;49.550;11.940;2023-08-30T01:47:43;96192.84;;;13.77;100.00
36598;BME280;22607;49.550;11.940;2023-08-30T01:50:17;96191.41;;;13.81;100.00
36598;BME280;22607;49.550;11.940;2023-08-30T01:52:44;96184.09;;;13.76;100.00
36598;BME280;22607;49.550;11.940;2023-08-30T01:55:13;96179.81;;;13.82;100.00
36598;BME280;22607;49.550;11.940;2023-08-30T01:57:40;96185.66;;;13.91;100.00
36598;BME280;22607;49.550;11.940;2023-08-30T02:00:08;96181.88;;;13.80;100.00
36598;BME280;22607;49.550;11.940;2023-08-30T02:02:35;96174.34;;;13.84;100.00
36598;BME280;22607;49.550;11.940;2023-08-30T02:05:02;96182.25;;;13.84;100.00
36598;BME280;22607;49.550;11.940;2023-08-30T02:07:55;96184.50;;;13.80;100.00
36598;BME280;22607;49.550;11.940;2023-08-30T02:10:35;96193.88;;;13.76;100.00
36598;BME280;22607;49.550;11.940;2023-08-30T02:13:04;96194.84;;;13.75;100.00
36598;BME280;22607;49.550;11.940;2023-08-30T02:15:33;96189.78;;;13.80;100.00
36598;BME280;22607;49.550;11.940;2023-08-30T02:18:08;96179.44;;;13.78;100.00
36598;BME280;22607;49.550;11.940;2023-08-30T02:20:35;96181.88;;;13.80;100.00
36598;BME280;22607;49.550;11.940;2023-08-30T02:23:33;96185.50;;;13.79;100.00
36598;BME280;22607;49.550;11.940;2023-08-30T02:26:00;96179.84;;;13.75;100.00
36598;BME280;22607;49.550;11.940;2023-08-30T02:28:26;96177.00;;;13.77;100.00
36598;BME280;22607;49.550;11.940;2023-08-30T02:30:53;96186.53;;;13.78;100.00
36598;BME280;22607;49.550;11.940;2023-08-30T02:33:21;96193.50;;;13.59;100.00
36598;BME280;22607;49.550;11.940;2023-08-30T02:35:48;96192.88;;;13.63;100.00
36598;BME280;22607;49.550;11.940;2023-08-30T02:38:14;96197.72;;;13.80;100.00
36598;BME280;22607;49.550;11.940;2023-08-30T02:40:41;96182.25;;;13.84;100.00
36598;BME280;22607;49.550;11.940;2023-08-30T02:43:29;96194.94;;;13.61;100.00
36598;BME280;22607;49.550;11.940;2023-08-30T02:45:57;96176.63;;;13.67;100.00
36598;BME280;22607;49.550;11.940;2023-08-30T02:48:24;96185.94;;;13.76;100.00
36598;BME280;22607;49.550;11.940;2023-08-30T02:50:50;96180.25;;;13.72;100.00
36598;BME280;22607;49.550;11.940;2023-08-30T02:53:18;96185.53;;;13.72;100.00
36598;BME280;22607;49.550;11.940;2023-08-30T02:55:46;96183.69;;;13.80;100.00
36598;BME280;22607;49.550;11.940;2023-08-30T02:58:13;96185.50;;;13.79;100.00
36598;BME280;22607;49.550;11.940;2023-08-30T03:00:41;96174.16;;;13.78;100.00
36598;BME280;22607;49.550;11.940;2023-08-30T03:03:08;96178.41;;;13.80;100.00
36598;BME280;22607;49.550;11.940;2023-08-30T03:05:35;96170.94;;;13.70;100.00
36598;BME280;22607;49.550;11.940;2023-08-30T03:08:01;96183.53;;;13.68;100.00
36598;BME280;22607;49.550;11.940;2023-08-30T03:10:28;96168.53;;;13.61;100.00
36598;BME280;22607;49.550;11.940;2023-08-30T03:12:55;96176.03;;;13.58;100.00
36598;BME280;22607;49.550;11.940;2023-08-30T03:15:25;96182.13;;;13.58;100.00
36598;BME280;22607;49.550;11.940;2023-08-30T03:17:51;96176.09;;;13.31;100.00
36598;BME280;22607;49.550;11.940;2023-08-30T03:20:18;96171.59;;;13.45;100.00
36598;BME280;22607;49.550;11.940;2023-08-30T03:22:45;96173.47;;;13.10;100.00
36598;BME280;22607;49.550;11.940;2023-08-30T03:25:29;96171.84;;;13.09;100.00
36598;BME280;22607;49.550;11.940;2023-08-30T03:27:59;96163.31;;;13.14;100.00
36598;BME280;22607;49.550;11.940;2023-08-30T03:30:45;96163.31;;;13.21;100.00
36598;BME280;22607;49.550;11.940;2023-08-30T03:33:12;96170.00;;;13.30;100.00
36598;BME280;22607;49.550;11.940;2023-08-30T03:35:43;96164.09;;;13.28;100.00
36598;BME280;22607;49.550;11.940;2023-08-30T03:38:18;96156.81;;;13.30;100.00
36598;BME280;22607;49.550;11.940;2023-08-30T03:40:45;96172.25;;;13.26;100.00
36598;BME280;22607;49.550;11.940;2023-08-30T03:43:11;96170.22;;;13.22;100.00
36598;BME280;22607;49.550;11.940;2023-08-30T03:45:38;96173.66;;;13.29;100.00
36598;BME280;22607;49.550;11.940;2023-08-30T03:48:30;96178.31;;;13.34;100.00
36598;BME280;22607;49.550;11.940;2023-08-30T03:51:06;96193.72;;;13.37;100.00
36598;BME280;22607;49.550;11.940;2023-08-30T03:53:33;96185.19;;;13.48;100.00
36598;BME280;22607;49.550;11.940;2023-08-30T03:55:59;96180.31;;;13.45;100.00
36598;BME280;22607;49.550;11.940;2023-08-30T03:58:26;96186.84;;;13.36;100.00
36598;BME280;22607;49.550;11.940;2023-08-30T04:01:10;96179.53;;;13.31;100.00
36598;BME280;22607;49.550;11.940;2023-08-30T04:03:36;96193.53;;;13.38;100.00
36598;BME280;22607;49.550;11.940;2023-08-30T04:06:07;96188.44;;;13.44;100.00
36598;BME280;22607;49.550;11.940;2023-08-30T04:08:34;96180.75;;;13.49;100.00
36598;BME280;22607;49.550;11.940;2023-08-30T04:11:01;96193.28;;;13.47;100.00
36598;BME280;22607;49.550;11.940;2023-08-30T04:13:28;96180.09;;;13.47;100.00
36598;BME280;22607;49.550;11.940;2023-08-30T04:15:55;96178.91;;;13.43;100.00
36598;BME280;22607;49.550;11.940;2023-08-30T04:18:25;96179.69;;;13.43;100.00
36598;BME280;22607;49.550;11.940;2023-08-30T04:20:51;96182.34;;;13.50;100.00
36598;BME280;22607;49.550;11.940;2023-08-30T04:23:24;96192.50;;;13.39;100.00
36598;BME280;22607;49.550;11.940;2023-08-30T04:25:52;96185.19;;;13.42;100.00
36598;BME280;22607;49.550;11.940;2023-08-30T04:28:19;96186.59;;;13.37;100.00
36598;BME280;22607;49.550;11.940;2023-08-30T04:30:45;96193.09;;;13.35;100.00
36598;BME280;22607;49.550;11.940;2023-08-30T04:33:13;96192.13;;;13.29;100.00
36598;BME280;22607;49.550;11.940;2023-08-30T04:35:41;96194.13;;;13.41;100.00
36598;BME280;22607;49.550;11.940;2023-08-30T04:38:08;96190.44;;;13.42;100.00
36598;BME280;22607;49.550;11.940;2023-08-30T04:40:35;96201.03;;;13.48;100.00
36598;BME280;22607;49.550;11.940;2023-08-30T04:43:10;96198.56;;;13.47;100.00
36598;BME280;22607;49.550;11.940;2023-08-30T04:45:37;96190.88;;;13.38;100.00
36598;BME280;22607;49.550;11.940;2023-08-30T04:48:22;96192.09;;;13.43;100.00
36598;BME280;22607;49.550;11.940;2023-08-30T04:50:58;96190.06;;;13.31;100.00
36598;BME280;22607;49.550;11.940;2023-08-30T04:53:25;96189.28;;;13.31;100.00
36598;BME280;22607;49.550;11.940;2023-08-30T04:55:51;96198.97;;;13.44;100.00
36598;BME280;22607;49.550;11.940;2023-08-30T04:58:18;96193.72;;;13.37;100.00
36598;BME280;22607;49.550;11.940;2023-08-30T05:00:45;96192.31;;;13.34;100.00
36598;BME280;22607;49.550;11.940;2023-08-30T05:03:11;96183.19;;;13.30;100.00
36598;BME280;22607;49.550;11.940;2023-08-30T05:05:38;96189.06;;;13.32;100.00
36598;BME280;22607;49.550;11.940;2023-08-30T05:08:05;96185.59;;;13.45;100.00
36598;BME280;22607;49.550;11.940;2023-08-30T05:10:32;96195.75;;;13.48;100.00
36598;BME280;22607;49.550;11.940;2023-08-30T05:12:59;96183.94;;;13.44;100.00
36598;BME280;22607;49.550;11.940;2023-08-30T05:15:25;96185.00;;;13.50;100.00
36598;BME280;22607;49.550;11.940;2023-08-30T05:17:52;96187.63;;;13.43;100.00
36598;BME280;22607;49.550;11.940;2023-08-30T05:20:18;96181.94;;;13.39;100.00
36598;BME280;22607;49.550;11.940;2023-08-30T05:22:58;96187.44;;;13.31;100.00
36598;BME280;22607;49.550;11.940;2023-08-30T05:25:25;96193.72;;;13.44;100.00
36598;BME280;22607;49.550;11.940;2023-08-30T05:28:04;96186.59;;;13.37;100.00
36598;BME280;22607;49.550;11.940;2023-08-30T05:30:31;96183.94;;;13.44;100.00
36598;BME280;22607;49.550;11.940;2023-08-30T05:32:58;96186.38;;;13.59;100.00
36598;BME280;22607;49.550;11.940;2023-08-30T05:35:25;96190.78;;;13.79;100.00
36598;BME280;22607;49.550;11.940;2023-08-30T05:37:52;96191.78;;;13.91;100.00
36598;BME280;22607;49.550;11.940;2023-08-30T05:40:24;96188.28;;;13.98;100.00
36598;BME280;22607;49.550;11.940;2023-08-30T05:42:51;96191.06;;;14.10;100.00
36598;BME280;22607;49.550;11.940;2023-08-30T05:45:19;96197.16;;;14.10;100.00
36598;BME280;22607;49.550;11.940;2023-08-30T05:47:46;96192.25;;;14.21;100.00
36598;BME280;22607;49.550;11.940;2023-08-30T05:50:13;96187.13;;;14.26;100.00
36598;BME280;22607;49.550;11.940;2023-08-30T05:52:39;96183.50;;;14.27;100.00
36598;BME280;22607;49.550;11.940;2023-08-30T05:55:08;96186.47;;;14.37;100.00
36598;BME280;22607;49.550;11.940;2023-08-30T05:57:35;96188.47;;;14.42;100.00
36598;BME280;22607;49.550;11.940;2023-08-30T06:00:02;96184.41;;;14.39;100.00
36598;BME280;22607;49.550;11.940;2023-08-30T06:02:31;96179.81;;;14.28;100.00
36598;BME280;22607;49.550;11.940;2023-08-30T06:04:57;96180.44;;;14.23;100.00
36598;BME280;22607;49.550;11.940;2023-08-30T06:07:26;96193.78;;;14.35;100.00
36598;BME280;22607;49.550;11.940;2023-08-30T06:09:53;96189.66;;;14.46;100.00
36598;BME280;22607;49.550;11.940;2023-08-30T06:12:23;96194.16;;;14.46;100.00
36598;BME280;22607;49.550;11.940;2023-08-30T06:14:51;96185.13;;;14.60;100.00
36598;BME280;22607;49.550;11.940;2023-08-30T06:17:19;96193.94;;;14.79;100.00
36598;BME280;22607;49.550;11.940;2023-08-30T06:19:46;96174.94;;;15.15;100.00
36598;BME280;22607;49.550;11.940;2023-08-30T06:22:13;96187.34;;;15.14;100.00
36598;BME280;22607;49.550;11.940;2023-08-30T06:24:40;96191.38;;;15.42;100.00
36598;BME280;22607;49.550;11.940;2023-08-30T06:27:06;96177.72;;;15.64;100.00
36598;BME280;22607;49.550;11.940;2023-08-30T06:29:33;96189.78;;;15.60;100.00
36598;BME280;22607;49.550;11.940;2023-08-30T06:31:59;96186.53;;;15.77;100.00
36598;BME280;22607;49.550;11.940;2023-08-30T06:34:26;96176.03;;;16.07;100.00
36598;BME280;22607;49.550;11.940;2023-08-30T06:36:52;96172.84;;;16.60;100.00
36598;BME280;22607;49.550;11.940;2023-08-30T06:39:34;96184.84;;;17.17;100.00
36598;BME280;22607;49.550;11.940;2023-08-30T06:42:03;96175.69;;;18.14;100.00
36598;BME280;22607;49.550;11.940;2023-08-30T06:44:30;96172.44;;;19.04;97.90
36598;BME280;22607;49.550;11.940;2023-08-30T06:46:57;96167.38;;;19.81;88.76
36598;BME280;22607;49.550;11.940;2023-08-30T06:49:32;96174.28;;;20.00;85.46
36598;BME280;22607;49.550;11.940;2023-08-30T06:51:59;96175.00;;;20.17;89.84
36598;BME280;22607;49.550;11.940;2023-08-30T06:54:32;96168.78;;;20.62;79.58
36598;BME280;22607;49.550;11.940;2023-08-30T06:56:59;96159.50;;;20.97;75.78
36598;BME280;22607;49.550;11.940;2023-08-30T06:59:28;96171.63;;;21.15;74.84
36598;BME280;22607;49.550;11.940;2023-08-30T07:01:55;96163.91;;;21.19;72.82
36598;BME280;22607;49.550;11.940;2023-08-30T07:04:22;96164.06;;;21.02;76.71
36598;BME280;22607;49.550;11.940;2023-08-30T07:07:02;96170.50;;;20.18;76.80
36598;BME280;22607;49.550;11.940;2023-08-30T07:09:30;96177.09;;;19.71;81.73
36598;BME280;22607;49.550;11.940;2023-08-30T07:11:58;96165.81;;;20.58;79.22
36598;BME280;22607;49.550;11.940;2023-08-30T07:14:34;96164.06;;;21.02;77.08
36598;BME280;22607;49.550;11.940;2023-08-30T07:17:01;96161.59;;;20.62;75.94
36598;BME280;22607;49.550;11.940;2023-08-30T07:19:34;96166.84;;;19.40;80.74
36598;BME280;22607;49.550;11.940;2023-08-30T07:22:01;96166.31;;;19.21;86.27
36598;BME280;22607;49.550;11.940;2023-08-30T07:24:44;96163.31;;;19.74;82.21
36598;BME280;22607;49.550;11.940;2023-08-30T07:27:11;96163.56;;;20.77;78.19
36598;BME280;22607;49.550;11.940;2023-08-30T07:29:56;96164.66;;;20.49;75.03
36598;BME280;22607;49.550;11.940;2023-08-30T07:32:23;96156.53;;;21.85;72.14
36598;BME280;22607;49.550;11.940;2023-08-30T07:34:50;96155.47;;;21.91;70.42
36598;BME280;22607;49.550;11.940;2023-08-30T07:37:20;96159.31;;;22.21;69.58
36598;BME280;22607;49.550;11.940;2023-08-30T07:39:47;96150.22;;;22.22;67.84
36598;BME280;22607;49.550;11.940;2023-08-30T07:42:14;96151.91;;;22.80;64.63
36598;BME280;22607;49.550;11.940;2023-08-30T07:44:41;96148.38;;;22.49;68.07
36598;BME280;22607;49.550;11.940;2023-08-30T07:47:08;96154.66;;;21.32;68.52
36598;BME280;22607;49.550;11.940;2023-08-30T07:49:34;96152.97;;;21.69;70.29
36598;BME280;22607;49.550;11.940;2023-08-30T07:52:01;96141.47;;;23.00;64.38
36598;BME280;22607;49.550;11.940;2023-08-30T07:54:29;96141.66;;;23.45;63.66
36598;BME280;22607;49.550;11.940;2023-08-30T07:56:56;96156.50;;;21.74;67.56
36598;BME280;22607;49.550;11.940;2023-08-30T07:59:47;96157.50;;;22.48;63.37
36598;BME280;22607;49.550;11.940;2023-08-30T08:02:14;96151.91;;;23.01;63.84
36598;BME280;22607;49.550;11.940;2023-08-30T08:04:41;96150.00;;;23.17;60.39
36598;BME280;22607;49.550;11.940;2023-08-30T08:07:07;96150.78;;;23.44;58.88
36598;BME280;22607;49.550;11.940;2023-08-30T08:09:34;96145.47;;;23.33;62.03
36598;BME280;22607;49.550;11.940;2023-08-30T08:12:17;96144.75;;;23.78;59.84
36598;BME280;22607;49.550;11.940;2023-08-30T08:14:43;96147.66;;;23.92;59.43
36598;BME280;22607;49.550;11.940;2023-08-30T08:17:10;96144.03;;;24.23;57.33
36598;BME280;22607;49.550;11.940;2023-08-30T08:19:36;96127.34;;;24.36;54.68
36598;BME280;22607;49.550;11.940;2023-08-30T08:22:06;96143.19;;;24.68;57.95
36598;BME280;22607;49.550;11.940;2023-08-30T08:24:32;96141.56;;;23.76;58.24
36598;BME280;22607;49.550;11.940;2023-08-30T08:26:59;96133.38;;;24.12;57.60
36598;BME280;22607;49.550;11.940;2023-08-30T08:29:27;96143.88;;;23.01;59.65
36598;BME280;22607;49.550;11.940;2023-08-30T08:31:54;96143.53;;;22.20;60.60
36598;BME280;22607;49.550;11.940;2023-08-30T08:34:28;96141.72;;;22.98;60.70
36598;BME280;22607;49.550;11.940;2023-08-30T08:36:55;96143.28;;;22.52;57.89
36598;BME280;22607;49.550;11.940;2023-08-30T08:39:21;96153.13;;;21.46;62.29
36598;BME280;22607;49.550;11.940;2023-08-30T08:41:50;96132.34;;;22.49;60.93
36598;BME280;22607;49.550;11.940;2023-08-30T08:44:20;96136.38;;;22.98;58.88
36598;BME280;22607;49.550;11.940;2023-08-30T08:46:49;96136.88;;;23.26;60.20
36598;BME280;22607;49.550;11.940;2023-08-30T08:52:30;96136.38;;;24.01;57.03
36598;BME280;22607;49.550;11.940;2023-08-30T08:55:09;96128.38;;;24.41;53.02
36598;BME280;22607;49.550;11.940;2023-08-30T08:57:37;96124.84;;;24.00;53.84
36598;BME280;22607;49.550;11.940;2023-08-30T09:00:05;96134.78;;;22.92;55.85
36598;BME280;22607;49.550;11.940;2023-08-30T09:02:33;96136.13;;;22.79;58.88
36598;BME280;22607;49.550;11.940;2023-08-30T09:05:01;96123.94;;;21.88;60.93
36598;BME280;22607;49.550;11.940;2023-08-30T09:07:28;96124.53;;;22.16;59.15
36598;BME280;22607;49.550;11.940;2023-08-30T09:09:56;96116.53;;;22.47;58.70
36598;BME280;22607;49.550;11.940;2023-08-30T09:12:23;96128.09;;;22.68;59.49
36598;BME280;22607;49.550;11.940;2023-08-30T09:14:56;96142.44;;;21.46;60.09
36598;BME280;22607;49.550;11.940;2023-08-30T09:17:23;96135.00;;;21.59;61.45
36598;BME280;22607;49.550;11.940;2023-08-30T09:19:50;96127.09;;;21.21;62.65
36598;BME280;22607;49.550;11.940;2023-08-30T09:22:17;96132.09;;;22.55;59.54
36598;BME280;22607;49.550;11.940;2023-08-30T09:24:44;96128.25;;;23.50;57.34
36598;BME280;22607;49.550;11.940;2023-08-30T09:27:10;96115.19;;;23.17;56.30
36598;BME280;22607;49.550;11.940;2023-08-30T09:29:37;96114.59;;;23.52;53.73
36598;BME280;22607;49.550;11.940;2023-08-30T09:32:04;96122.69;;;23.15;53.86
36598;BME280;22607;49.550;11.940;2023-08-30T09:34:30;96123.22;;;23.23;57.18
36598;BME280;22607;49.550;11.940;2023-08-30T09:37:05;96122.47;;;22.70;56.23
36598;BME280;22607;49.550;11.940;2023-08-30T09:39:32;96132.66;;;22.68;56.85
36598;BME280;22607;49.550;11.940;2023-08-30T09:41:59;96120.25;;;22.15;55.91
36598;BME280;22607;49.550;11.940;2023-08-30T09:44:29;96122.47;;;23.01;53.88
36598;BME280;22607;49.550;11.940;2023-08-30T09:46:56;96132.06;;;23.33;55.65
36598;BME280;22607;49.550;11.940;2023-08-30T09:49:24;96124.19;;;23.58;55.53
36598;BME280;22607;49.550;11.940;2023-08-30T09:52:08;96113.78;;;23.46;53.63
36598;BME280;22607;49.550;11.940;2023-08-30T09:54:35;96120.09;;;23.81;53.31
36598;BME280;22607;49.550;11.940;2023-08-30T09:57:07;96109.81;;;23.99;51.08
36598;BME280;22607;49.550;11.940;2023-08-30T09:59:49;96113.09;;;23.85;52.76
36598;BME280;22607;49.550;11.940;2023-08-30T10:02:16;96121.03;;;24.11;52.44
36598;BME280;22607;49.550;11.940;2023-08-30T10:04:44;96109.38;;;24.32;51.98
36598;BME280;22607;49.550;11.940;2023-08-30T10:07:13;96109.97;;;23.68;50.33
36598;BME280;22607;49.550;11.940;2023-08-30T10:09:41;96110.84;;;24.08;51.88
36598;BME280;22607;49.550;11.940;2023-08-30T10:12:28;96107.94;;;23.99;51.21
36598;BME280;22607;49.550;11.940;2023-08-30T10:14:55;96109.22;;;24.18;52.18
36598;BME280;22607;49.550;11.940;2023-08-30T10:17:33;96102.69;;;24.29;52.28
36598;BME280;22607;49.550;11.940;2023-08-30T10:20:04;96101.56;;;23.85;51.92
36598;BME280;22607;49.550;11.940;2023-08-30T10:22:55;96105.03;;;23.91;52.96
36598;BME280;22607;49.550;11.940;2023-08-30T10:25:26;96097.50;;;24.43;50.25
36598;BME280;22607;49.550;11.940;2023-08-30T10:27:55;96103.50;;;24.64;49.11
36598;BME280;22607;49.550;11.940;2023-08-30T10:30:26;96104.22;;;24.75;50.47
36598;BME280;22607;49.550;11.940;2023-08-30T10:32:53;96096.00;;;24.61;49.30
36598;BME280;22607;49.550;11.940;2023-08-30T10:35:20;96107.66;;;24.51;44.84
36598;BME280;22607;49.550;11.940;2023-08-30T10:37:58;96101.88;;;24.34;48.23
36598;BME280;22607;49.550;11.940;2023-08-30T10:40:25;96097.03;;;23.85;47.43
36598;BME280;22607;49.550;11.940;2023-08-30T10:43:00;96099.44;;;23.87;50.73
36598;BME280;22607;49.550;11.940;2023-08-30T10:45:27;96099.06;;;24.49;49.98
36598;BME280;22607;49.550;11.940;2023-08-30T10:47:57;96099.84;;;24.15;49.10
36598;BME280;22607;49.550;11.940;2023-08-30T10:50:30;96103.09;;;23.51;47.95
36598;BME280;22607;49.550;11.940;2023-08-30T10:53:12;96095.41;;;22.20;50.96
36598;BME280;22607;49.550;11.940;2023-08-30T10:55:39;96100.75;;;22.46;51.64
36598;BME280;22607;49.550;11.940;2023-08-30T10:58:06;96096.50;;;21.55;54.28
36598;BME280;22607;49.550;11.940;2023-08-30T11:00:33;96104.66;;;21.81;54.17
36598;BME280;22607;49.550;11.940;2023-08-30T11:03:00;96099.59;;;21.25;56.52
36598;BME280;22607;49.550;11.940;2023-08-30T11:05:29;96101.78;;;22.08;56.11
36598;BME280;22607;49.550;11.940;2023-08-30T11:07:56;96105.88;;;22.89;54.01
36598;BME280;22607;49.550;11.940;2023-08-30T11:10:33;96095.94;;;23.05;52.62
36598;BME280;22607;49.550;11.940;2023-08-30T11:13:00;96099.69;;;23.04;53.26
36598;BME280;22607;49.550;11.940;2023-08-30T11:15:27;96099.13;;;23.23;53.83
36598;BME280;22607;49.550;11.940;2023-08-30T11:18:02;96095.16;;;23.04;55.19
36598;BME280;22607;49.550;11.940;2023-08-30T11:20:29;96096.63;;;23.52;52.61
36598;BME280;22607;49.550;11.940;2023-08-30T11:22:56;96081.47;;;23.82;51.39
36598;BME280;22607;49.550;11.940;2023-08-30T11:25:25;96081.53;;;23.72;48.76
36598;BME280;22607;49.550;11.940;2023-08-30T11:28:01;96083.91;;;23.84;48.74
36598;BME280;22607;49.550;11.940;2023-08-30T11:30:28;96084.16;;;23.82;49.49
36598;BME280;22607;49.550;11.940;2023-08-30T11:33:16;96079.25;;;24.00;49.91
36598;BME280;22607;49.550;11.940;2023-08-30T11:35:42;96069.69;;;23.89;48.71
36598;BME280;22607;49.550;11.940;2023-08-30T11:38:09;96076.25;;;24.07;48.18
36598;BME280;22607;49.550;11.940;2023-08-30T11:40:36;96061.25;;;23.50;48.82
36598;BME280;22607;49.550;11.940;2023-08-30T11:43:03;96071.75;;;23.97;48.50
36598;BME280;22607;49.550;11.940;2023-08-30T11:45:33;96070.22;;;23.85;46.48
36598;BME280;22607;49.550;11.940;2023-08-30T11:48:03;96072.22;;;24.15;48.41
36598;BME280;22607;49.550;11.940;2023-08-30T11:50:30;96073.94;;;23.90;49.61
36598;BME280;22607;49.550;11.940;2023-08-30T11:52:58;96065.81;;;23.55;49.43
36598;BME280;22607;49.550;11.940;2023-08-30T11:55:25;96068.53;;;23.50;50.63
36598;BME280;22607;49.550;11.940;2023-08-30T11:57:52;96076.94;;;23.01;51.23
36598;BME280;22607;49.550;11.940;2023-08-30T12:00:19;96073.16;;;23.07;52.66
36598;BME280;22607;49.550;11.940;2023-08-30T12:02:46;96075.00;;;23.28;51.21
36598;BME280;22607;49.550;11.940;2023-08-30T12:05:30;96060.78;;;23.27;50.26
36598;BME280;22607;49.550;11.940;2023-08-30T12:08:00;96070.81;;;23.72;48.11
36598;BME280;22607;49.550;11.940;2023-08-30T12:10:28;96066.88;;;23.49;48.55
36598;BME280;22607;49.550;11.940;2023-08-30T12:12:55;96059.84;;;22.81;50.86
36598;BME280;22607;49.550;11.940;2023-08-30T12:15:24;96058.53;;;22.63;50.79
36598;BME280;22607;49.550;11.940;2023-08-30T12:17:53;96065.41;;;21.92;53.03
36598;BME280;22607;49.550;11.940;2023-08-30T12:20:20;96060.94;;;22.54;51.18
36598;BME280;22607;49.550;11.940;2023-08-30T12:22:47;96063.59;;;22.91;49.84
36598;BME280;22607;49.550;11.940;2023-08-30T12:25:20;96059.56;;;22.88;51.50
36598;BME280;22607;49.550;11.940;2023-08-30T12:27:47;96064.59;;;23.16;51.11
36598;BME280;22607;49.550;11.940;2023-08-30T12:30:16;96065.41;;;23.16;49.81
36598;BME280;22607;49.550;11.940;2023-08-30T12:32:44;96059.59;;;22.67;48.86
36598;BME280;22607;49.550;11.940;2023-08-30T12:35:11;96059.31;;;22.79;50.76
36598;BME280;22607;49.550;11.940;2023-08-30T12:37:38;96067.56;;;23.04;52.33
36598;BME280;22607;49.550;11.940;2023-08-30T12:40:06;96057.41;;;22.95;51.33
36598;BME280;22607;49.550;11.940;2023-08-30T12:42:33;96062.53;;;22.55;50.85
36598;BME280;22607;49.550;11.940;2023-08-30T12:45:00;96058.50;;;22.84;51.44
36598;BME280;22607;49.550;11.940;2023-08-30T12:47:27;96059.81;;;22.19;53.24
36598;BME280;22607;49.550;11.940;2023-08-30T12:49:55;96064.66;;;22.53;52.59
36598;BME280;22607;49.550;11.940;2023-08-30T12:52:21;96058.25;;;22.65;52.44
36598;BME280;22607;49.550;11.940;2023-08-30T12:54:48;96061.72;;;22.24;51.42
36598;BME280;22607;49.550;11.940;2023-08-30T12:57:34;96065.09;;;21.83;53.57
36598;BME280;22607;49.550;11.940;2023-08-30T13:00:00;96054.22;;;22.10;55.25
36598;BME280;22607;49.550;11.940;2023-08-30T13:02:27;96052.34;;;22.21;55.69
36598;BME280;22607;49.550;11.940;2023-08-30T13:04:53;96048.34;;;22.39;55.13
36598;BME280;22607;49.550;11.940;2023-08-30T13:07:20;96060.34;;;22.52;54.47